Time;durP1;ratioP1;P1;durP2;ratioP2;P2;SDS_P1;SDS_P2;PMS_P1;PMS_P2;Temp;Humidity;BMP_temperature;BMP_pressure;BME280_temperature;BME280_humidity;BME280_pressure;Samples;Min_cycle;Max_cycle;Signal;HPM_P1;HPM_P2
2022/11/15 00:00:56;;;;;;;33.92;30.17;;;7.50;99.90;;;;;;5112178;27;20051;-81
2022/11/15 00:03:24;;;;;;;31.92;28.52;;;7.50;99.90;;;;;;5102640;27;20066;-80
2022/11/15 00:05:51;;;;;;;32.20;29.00;;;7.40;99.90;;;;;;5152237;27;20038;-81
2022/11/15 00:08:17;;;;;;;31.08;27.98;;;7.40;99.90;;;;;;5155185;27;20071;-81
2022/11/15 00:10:42;;;;;;;32.00;28.80;;;7.40;99.90;;;;;;5096447;27;20121;-81
2022/11/15 00:13:12;;;;;;;34.55;31.13;;;7.40;99.90;;;;;;5124779;27;20049;-81
2022/11/15 00:15:40;;;;;;;29.38;26.45;;;7.50;99.90;;;;;;5132828;27;20085;-81
2022/11/15 00:18:11;;;;;;;32.63;29.25;;;7.50;99.90;;;;;;5129006;27;20114;-80
2022/11/15 00:20:36;;;;;;;31.95;28.55;;;7.50;99.90;;;;;;5140423;27;20043;-81
2022/11/15 00:23:04;;;;;;;31.08;28.02;;;7.50;99.90;;;;;;5095220;27;20046;-80
2022/11/15 00:25:30;;;;;;;30.20;27.13;;;7.60;99.90;;;;;;5130992;27;20047;-81
2022/11/15 00:27:57;;;;;;;31.25;27.95;;;7.60;99.90;;;;;;5142263;27;20667;-80
2022/11/15 00:30:23;;;;;;;31.27;28.27;;;7.70;99.90;;;;;;5123918;27;20059;-80
2022/11/15 00:32:52;;;;;;;29.38;26.45;;;7.70;99.90;;;;;;5112718;27;20083;-80
2022/11/15 00:35:18;;;;;;;31.05;27.75;;;7.70;99.90;;;;;;5122259;27;20130;-80
2022/11/15 00:37:46;;;;;;;33.90;30.38;;;7.70;99.90;;;;;;5155235;27;20098;-80
2022/11/15 00:40:14;;;;;;;31.90;28.73;;;7.70;99.90;;;;;;5107360;27;20532;-79
2022/11/15 00:42:43;;;;;;;32.97;29.65;;;7.70;99.90;;;;;;5127533;27;20899;-80
2022/11/15 00:45:09;;;;;;;34.85;31.15;;;7.80;99.90;;;;;;5116896;27;20049;-80
2022/11/15 00:47:35;;;;;;;33.35;29.83;;;7.70;99.90;;;;;;5107523;27;20043;-79
2022/11/15 00:50:01;;;;;;;32.63;29.30;;;7.70;99.90;;;;;;5131285;27;20106;-80
2022/11/15 00:52:27;;;;;;;31.48;28.17;;;7.70;99.90;;;;;;5120613;27;20039;-80
2022/11/15 00:54:56;;;;;;;33.45;30.05;;;7.70;99.90;;;;;;5118902;27;20492;-80
2022/11/15 00:57:21;;;;;;;34.15;30.75;;;7.70;99.90;;;;;;5114745;27;20047;-80
2022/11/15 00:59:47;;;;;;;33.08;29.77;;;7.70;99.90;;;;;;5158154;27;20059;-80
2022/11/15 01:02:13;;;;;;;32.05;28.80;;;7.70;99.90;;;;;;5134646;27;20061;-80
2022/11/15 01:04:39;;;;;;;32.00;28.63;;;7.70;99.90;;;;;;5126489;27;20383;-80
2022/11/15 01:07:05;;;;;;;32.28;28.77;;;7.70;99.90;;;;;;5128655;27;20121;-80
2022/11/15 01:09:30;;;;;;;30.90;27.70;;;7.70;99.90;;;;;;5126024;27;20039;-80
2022/11/15 01:11:56;;;;;;;32.70;29.15;;;7.70;99.90;;;;;;5127583;27;20035;-80
2022/11/15 01:14:22;;;;;;;33.63;30.13;;;7.70;99.90;;;;;;5114728;27;20051;-80
2022/11/15 01:16:48;;;;;;;34.33;30.67;;;7.70;99.90;;;;;;5113504;27;20587;-80
2022/11/15 01:19:14;;;;;;;33.40;29.65;;;7.70;99.90;;;;;;5110056;27;20073;-72
2022/11/15 01:21:40;;;;;;;31.00;27.73;;;7.70;99.90;;;;;;5137704;27;20089;-74
2022/11/15 01:24:06;;;;;;;31.67;28.35;;;7.70;99.90;;;;;;5105037;27;21807;-72
2022/11/15 01:26:33;;;;;;;33.78;29.33;;;7.70;99.90;;;;;;5132337;27;20043;-73
2022/11/15 01:29:02;;;;;;;31.83;28.42;;;7.70;99.90;;;;;;5121327;27;20111;-80
2022/11/15 01:31:31;;;;;;;33.13;29.50;;;7.70;99.90;;;;;;5108576;27;20066;-73
2022/11/15 01:33:57;;;;;;;33.60;29.92;;;7.70;99.90;;;;;;5107389;27;20538;-73
2022/11/15 01:36:23;;;;;;;34.95;31.10;;;7.70;99.90;;;;;;5099972;27;20046;-73
2022/11/15 01:38:56;;;;;;;31.63;28.23;;;7.70;99.90;;;;;;5117401;27;20055;-73
2022/11/15 01:41:26;;;;;;;35.53;30.33;;;7.70;99.90;;;;;;5115956;27;20141;-80
2022/11/15 01:43:54;;;;;;;35.88;30.52;;;7.70;99.90;;;;;;5104957;27;20087;-80
2022/11/15 01:46:36;;;;;;;35.75;30.92;;;7.70;99.90;;;;;;5104173;27;20675;-80
2022/11/15 01:49:11;;;;;;;34.88;30.33;;;7.70;99.90;;;;;;5137820;27;20042;-80
2022/11/15 01:51:37;;;;;;;36.95;31.35;;;7.70;99.90;;;;;;5108071;27;20044;-80
2022/11/15 01:54:08;;;;;;;37.05;31.00;;;7.60;99.90;;;;;;5121388;27;20127;-80
2022/11/15 01:56:40;;;;;;;32.47;28.88;;;7.70;99.90;;;;;;5121080;27;20251;-80
2022/11/15 01:59:08;;;;;;;35.47;30.60;;;7.70;99.90;;;;;;5104606;27;20100;-80
2022/11/15 02:01:34;;;;;;;37.28;31.75;;;7.70;99.90;;;;;;5146442;27;20035;-80
2022/11/15 02:04:15;;;;;;;36.80;30.85;;;7.70;99.90;;;;;;5118800;27;20054;-82
2022/11/15 02:06:42;;;;;;;38.10;32.85;;;7.70;99.90;;;;;;5136955;27;20051;-80
2022/11/15 02:09:08;;;;;;;34.72;29.90;;;7.70;99.90;;;;;;5086884;27;20043;-80
2022/11/15 02:11:34;;;;;;;38.47;30.48;;;7.70;99.90;;;;;;5112994;27;20043;-81
2022/11/15 02:14:01;;;;;;;37.08;31.13;;;7.70;99.90;;;;;;5099649;27;20035;-80
2022/11/15 02:16:31;;;;;;;34.25;29.08;;;7.70;99.90;;;;;;5116880;27;20066;-80
2022/11/15 02:19:15;;;;;;;39.03;32.03;;;7.70;99.90;;;;;;5120055;27;20493;-80
2022/11/15 02:22:27;;;;;;;36.53;30.48;;;7.70;99.90;;;;;;5123406;27;20050;-80
2022/11/15 02:25:22;;;;;;;36.55;29.92;;;7.70;99.90;;;;;;5094661;27;20576;-80
2022/11/15 02:28:10;;;;;;;36.08;29.83;;;7.70;99.90;;;;;;5120704;27;20042;-80
2022/11/15 02:30:42;;;;;;;37.28;30.67;;;7.80;99.90;;;;;;5115344;27;20062;-80
2022/11/15 02:33:31;;;;;;;36.65;30.02;;;7.80;99.90;;;;;;5126828;27;20051;-80
2022/11/15 02:36:15;;;;;;;37.65;31.77;;;7.80;99.90;;;;;;5121286;27;20408;-80
2022/11/15 02:38:54;;;;;;;34.30;28.92;;;7.80;99.90;;;;;;5098432;27;20046;-80
2022/11/15 02:41:38;;;;;;;36.00;30.05;;;7.80;99.90;;;;;;5097524;27;20062;-80
2022/11/15 02:44:11;;;;;;;39.97;31.27;;;7.80;99.90;;;;;;5147608;27;20092;-80
2022/11/15 02:49:33;;;;;;;35.92;29.40;;;7.80;99.90;;;;;;5116888;27;20051;-80
2022/11/15 02:52:02;;;;;;;39.03;30.23;;;7.80;99.90;;;;;;5118570;27;20046;-80
2022/11/15 02:54:33;;;;;;;39.85;29.77;;;7.90;99.90;;;;;;5119572;27;20047;-80
2022/11/15 02:57:06;;;;;;;36.97;29.90;;;7.90;99.90;;;;;;5128938;27;20043;-80
2022/11/15 02:59:48;;;;;;;39.58;30.85;;;7.90;99.90;;;;;;5101860;27;20075;-80
2022/11/15 03:02:49;;;;;;;39.10;30.33;;;7.90;99.90;;;;;;5104153;27;20054;-80
2022/11/15 03:05:28;;;;;;;47.00;32.65;;;7.90;99.90;;;;;;5091461;27;20174;-81
2022/11/15 03:08:25;;;;;;;40.47;30.00;;;7.90;99.90;;;;;;5115133;27;20556;-80
2022/11/15 03:11:14;;;;;;;47.40;33.17;;;8.00;99.90;;;;;;5102850;27;20043;-80
2022/11/15 03:13:58;;;;;;;46.92;35.00;;;7.90;99.90;;;;;;5104338;28;20637;-80
2022/11/15 03:16:48;;;;;;;49.22;33.63;;;8.00;99.90;;;;;;5106434;27;20100;-80
2022/11/15 03:19:21;;;;;;;49.28;34.55;;;8.00;99.90;;;;;;5103103;27;20047;-80
2022/11/15 03:21:49;;;;;;;51.38;35.53;;;8.00;99.90;;;;;;5118525;27;20115;-80
2022/11/15 03:24:19;;;;;;;58.28;38.22;;;8.00;99.90;;;;;;5109626;27;20070;-80
2022/11/15 03:26:47;;;;;;;55.35;37.42;;;8.10;99.90;;;;;;5128676;27;20043;-80
2022/11/15 03:29:24;;;;;;;54.53;37.95;;;8.10;99.90;;;;;;5121821;27;20129;-80
2022/11/15 03:31:58;;;;;;;53.58;35.50;;;8.10;99.90;;;;;;5117995;27;20043;-80
2022/11/15 03:34:40;;;;;;;56.75;37.47;;;8.10;99.90;;;;;;5122299;27;20121;-80
2022/11/15 03:37:08;;;;;;;55.47;38.05;;;8.10;99.90;;;;;;5112237;27;20058;-80
2022/11/15 03:39:34;;;;;;;64.60;40.67;;;8.10;99.90;;;;;;5108918;27;20090;-80
2022/11/15 03:42:38;;;;;;;56.33;38.45;;;8.10;99.90;;;;;;5151554;27;20067;-79
2022/11/15 03:45:13;;;;;;;70.72;42.75;;;8.10;99.90;;;;;;5056064;27;20051;-82
2022/11/15 03:47:45;;;;;;;77.05;44.75;;;8.10;99.90;;;;;;5122497;27;20047;-81
2022/11/15 03:50:20;;;;;;;64.25;40.05;;;8.10;99.90;;;;;;5130969;27;20431;-81
2022/11/15 03:52:48;;;;;;;72.32;43.83;;;8.20;99.90;;;;;;5113369;27;20395;-81
2022/11/15 03:55:18;;;;;;;64.22;42.90;;;8.20;99.90;;;;;;5118899;27;20041;-79
2022/11/15 03:57:44;;;;;;;66.50;42.97;;;8.20;99.90;;;;;;5123084;27;20834;-80
2022/11/15 04:00:11;;;;;;;73.57;44.33;;;8.20;99.90;;;;;;5102217;27;20392;-79
2022/11/15 04:02:37;;;;;;;69.90;42.92;;;8.20;99.90;;;;;;5102984;27;20096;-80
2022/11/15 04:05:03;;;;;;;72.63;43.97;;;8.20;99.90;;;;;;5119662;27;20035;-80
2022/11/15 04:07:29;;;;;;;78.72;48.90;;;8.20;99.90;;;;;;5117371;27;20040;-79
2022/11/15 04:10:05;;;;;;;72.85;47.08;;;8.20;99.90;;;;;;5124559;27;20099;-79
2022/11/15 04:12:35;;;;;;;80.18;48.83;;;8.30;99.90;;;;;;5113094;27;20134;-79
2022/11/15 04:15:08;;;;;;;87.72;51.47;;;8.30;99.90;;;;;;5131567;27;20131;-79
2022/11/15 04:17:37;;;;;;;87.47;51.22;;;8.30;99.90;;;;;;5118786;27;20035;-79
2022/11/15 04:25:40;;;;;;;104.18;57.05;;;8.40;99.90;;;;;;5118633;27;20139;-73
2022/11/15 04:28:06;;;;;;;95.15;56.38;;;8.40;99.90;;;;;;5130312;27;20031;-72
2022/11/15 04:30:32;;;;;;;100.47;55.45;;;8.40;99.90;;;;;;5118825;27;20574;-72
2022/11/15 04:33:01;;;;;;;118.25;61.60;;;8.50;99.90;;;;;;5092154;27;20046;-73
2022/11/15 04:35:27;;;;;;;113.15;60.33;;;8.50;99.90;;;;;;5117759;27;20047;-73
2022/11/15 04:37:53;;;;;;;115.68;62.63;;;8.50;99.90;;;;;;5101909;27;20055;-72
2022/11/15 04:40:19;;;;;;;120.97;61.17;;;8.50;99.90;;;;;;5122573;27;20093;-73
2022/11/15 04:42:44;;;;;;;132.57;66.50;;;8.50;99.90;;;;;;5089072;27;20051;-72
2022/11/15 04:45:10;;;;;;;131.85;67.05;;;8.60;99.90;;;;;;5104046;27;20096;-73
2022/11/15 04:47:36;;;;;;;144.82;69.43;;;8.60;99.90;;;;;;5133883;27;20058;-72
2022/11/15 04:50:02;;;;;;;108.50;61.22;;;8.60;99.90;;;;;;5107593;27;20043;-75
2022/11/15 04:52:29;;;;;;;118.93;63.72;;;8.60;99.90;;;;;;5123945;27;20045;-73
2022/11/15 04:54:54;;;;;;;120.28;62.33;;;8.70;99.90;;;;;;5119785;27;20461;-72
2022/11/15 04:57:20;;;;;;;109.13;59.28;;;8.70;99.90;;;;;;5118197;27;20042;-72
2022/11/15 04:59:46;;;;;;;148.90;71.03;;;8.70;99.90;;;;;;5112347;27;20154;-73
2022/11/15 05:02:12;;;;;;;117.03;61.92;;;8.70;99.90;;;;;;5104112;27;20126;-73
2022/11/15 05:04:38;;;;;;;122.70;64.32;;;8.80;99.90;;;;;;5097589;27;20140;-73
2022/11/15 05:07:04;;;;;;;135.23;67.90;;;8.70;99.90;;;;;;5129964;27;20074;-73
2022/11/15 05:09:30;;;;;;;128.75;67.75;;;8.80;99.90;;;;;;5119255;27;20043;-79
2022/11/15 05:11:56;;;;;;;126.18;68.72;;;8.80;99.90;;;;;;5137376;27;20135;-79
2022/11/15 05:14:22;;;;;;;140.40;69.45;;;8.90;99.90;;;;;;5126558;27;20047;-80
2022/11/15 05:16:47;;;;;;;152.20;73.63;;;8.90;99.90;;;;;;5118637;27;20051;-79
2022/11/15 05:19:13;;;;;;;153.07;74.55;;;8.90;99.90;;;;;;5101219;27;20074;-79
2022/11/15 05:21:39;;;;;;;125.10;70.57;;;8.90;99.90;;;;;;5138658;27;20480;-80
2022/11/15 05:24:06;;;;;;;122.88;68.40;;;9.00;99.90;;;;;;5090882;27;20108;-79
2022/11/15 05:26:32;;;;;;;117.18;66.35;;;9.00;99.90;;;;;;5127409;27;20615;-79
2022/11/15 05:29:02;;;;;;;119.20;68.97;;;9.10;99.90;;;;;;5129920;27;20042;-80
2022/11/15 05:31:28;;;;;;;120.43;68.35;;;9.10;99.90;;;;;;5118096;27;20054;-79
2022/11/15 05:33:55;;;;;;;113.22;66.00;;;9.20;99.90;;;;;;5105041;27;20571;-80
2022/11/15 05:36:37;;;;;;;120.22;66.95;;;9.20;99.90;;;;;;5126533;27;20046;-73
2022/11/15 05:39:06;;;;;;;108.93;66.10;;;9.30;99.90;;;;;;5102281;27;20035;-73
2022/11/15 05:41:36;;;;;;;108.47;66.65;;;9.30;99.90;;;;;;5140409;27;20615;-79
2022/11/15 05:44:06;;;;;;;103.13;64.57;;;9.30;99.90;;;;;;5125133;27;20051;-80
2022/11/15 05:46:34;;;;;;;101.38;64.13;;;9.40;99.90;;;;;;5150885;27;20098;-79
2022/11/15 05:49:00;;;;;;;92.63;61.92;;;9.40;99.90;;;;;;5127653;27;20509;-80
2022/11/15 05:51:28;;;;;;;92.82;62.13;;;9.50;99.90;;;;;;5150319;27;20065;-80
2022/11/15 05:53:56;;;;;;;94.63;62.30;;;9.40;99.90;;;;;;5112656;27;20131;-80
2022/11/15 05:56:22;;;;;;;96.55;62.42;;;9.50;99.90;;;;;;5128357;27;20507;-80
2022/11/15 05:58:48;;;;;;;87.68;61.33;;;9.60;99.90;;;;;;5131795;27;20039;-79
2022/11/15 06:01:14;;;;;;;82.78;58.63;;;9.50;99.90;;;;;;5115347;27;21117;-79
2022/11/15 06:03:42;;;;;;;92.72;62.45;;;9.60;99.90;;;;;;5100541;27;20051;-80
2022/11/15 06:06:08;;;;;;;82.32;58.20;;;9.60;99.90;;;;;;5107285;27;20392;-79
2022/11/15 06:08:34;;;;;;;85.80;57.42;;;9.60;99.90;;;;;;5090499;27;20107;-79
2022/11/15 06:11:05;;;;;;;82.30;58.05;;;9.70;99.90;;;;;;5113718;27;20047;-79
2022/11/15 06:13:31;;;;;;;94.38;63.00;;;9.70;99.90;;;;;;5113660;27;20038;-79
2022/11/15 06:15:57;;;;;;;94.72;61.20;;;9.70;99.90;;;;;;5100113;27;20070;-79
2022/11/15 06:18:22;;;;;;;86.63;58.72;;;9.70;99.90;;;;;;5106290;27;20047;-79
2022/11/15 06:20:48;;;;;;;86.43;57.90;;;9.80;99.90;;;;;;5126846;27;20917;-79
2022/11/15 06:23:14;;;;;;;89.30;60.40;;;9.90;99.90;;;;;;5139214;27;20039;-79
2022/11/15 06:25:40;;;;;;;91.97;59.33;;;9.80;99.90;;;;;;5138447;27;20100;-79
2022/11/15 06:28:07;;;;;;;89.57;59.95;;;9.90;99.90;;;;;;5103266;27;20417;-79
2022/11/15 06:30:32;;;;;;;82.38;56.70;;;9.90;99.90;;;;;;5106005;27;20055;-79
2022/11/15 06:33:03;;;;;;;85.60;57.88;;;9.90;99.90;;;;;;5097089;27;20529;-79
2022/11/15 06:35:30;;;;;;;79.65;56.88;;;9.90;99.90;;;;;;5120280;27;20047;-79
2022/11/15 06:38:01;;;;;;;87.03;55.28;;;9.90;99.90;;;;;;5136388;27;20046;-80
2022/11/15 06:40:27;;;;;;;83.75;57.05;;;10.00;99.90;;;;;;5124448;27;20467;-81
2022/11/15 06:43:00;;;;;;;80.97;54.30;;;10.00;99.90;;;;;;5086774;27;20047;-81
2022/11/15 06:45:26;;;;;;;81.47;54.70;;;10.00;99.90;;;;;;5112031;27;20104;-81
2022/11/15 06:47:52;;;;;;;85.43;57.05;;;10.00;99.90;;;;;;5120732;27;20063;-81
2022/11/15 06:50:18;;;;;;;86.15;57.40;;;10.00;99.90;;;;;;5099074;27;20143;-81
2022/11/15 06:52:44;;;;;;;74.38;51.80;;;10.10;99.90;;;;;;5122338;27;20478;-81
2022/11/15 06:55:09;;;;;;;75.78;52.33;;;10.10;99.90;;;;;;5150274;27;20042;-80
2022/11/15 06:57:36;;;;;;;74.97;53.55;;;10.10;99.90;;;;;;5095779;27;20188;-72
2022/11/15 07:00:04;;;;;;;73.32;52.75;;;10.20;99.90;;;;;;5134375;27;20493;-71
2022/11/15 07:02:30;;;;;;;74.00;50.88;;;10.20;99.90;;;;;;5116146;27;20043;-71
2022/11/15 07:04:56;;;;;;;70.50;49.92;;;10.20;99.90;;;;;;5120661;27;20051;-72
2022/11/15 07:07:22;;;;;;;68.40;51.05;;;10.20;99.90;;;;;;5102732;27;20374;-72
2022/11/15 07:09:48;;;;;;;71.45;50.28;;;10.30;99.90;;;;;;5107318;27;20066;-72
2022/11/15 07:12:14;;;;;;;62.88;46.75;;;10.30;99.90;;;;;;5154682;27;20062;-71
2022/11/15 07:14:39;;;;;;;62.95;47.33;;;10.30;99.90;;;;;;5108992;27;20087;-72
2022/11/15 07:17:05;;;;;;;65.22;46.88;;;10.30;99.90;;;;;;5119596;27;20523;-72
2022/11/15 07:19:32;;;;;;;62.97;49.30;;;10.40;99.90;;;;;;5105506;27;20505;-73
2022/11/15 07:21:57;;;;;;;65.93;48.58;;;10.40;99.90;;;;;;5103559;27;20778;-73
2022/11/15 07:24:23;;;;;;;63.83;47.90;;;10.40;99.90;;;;;;5117645;27;20071;-73
2022/11/15 07:26:49;;;;;;;58.42;45.42;;;10.40;99.90;;;;;;5152119;27;20039;-74
2022/11/15 07:29:14;;;;;;;62.58;45.35;;;10.50;99.90;;;;;;5147073;27;20070;-75
2022/11/15 07:31:40;;;;;;;60.78;45.70;;;10.40;99.90;;;;;;5137251;27;20078;-75
2022/11/15 07:34:06;;;;;;;61.88;46.50;;;10.50;99.90;;;;;;5116519;27;20051;-73
2022/11/15 07:36:32;;;;;;;58.20;44.08;;;10.50;99.90;;;;;;5118309;27;20425;-73
2022/11/15 07:39:01;;;;;;;62.95;45.70;;;10.50;99.90;;;;;;5113969;27;20035;-73
2022/11/15 07:41:27;;;;;;;52.30;42.65;;;10.50;99.90;;;;;;5115910;27;20304;-73
2022/11/15 07:43:52;;;;;;;55.25;42.50;;;10.60;99.90;;;;;;5120766;27;20410;-73
2022/11/15 07:46:18;;;;;;;51.47;41.78;;;10.50;99.90;;;;;;5103023;27;20288;-73
2022/11/15 07:48:44;;;;;;;51.58;42.00;;;10.60;99.90;;;;;;5122121;27;20228;-73
2022/11/15 07:51:16;;;;;;;54.42;40.25;;;10.60;99.90;;;;;;5098515;27;20151;-73
2022/11/15 07:53:43;;;;;;;51.83;43.05;;;10.60;99.90;;;;;;5119376;27;20730;-73
2022/11/15 07:56:09;;;;;;;51.00;40.97;;;10.70;99.90;;;;;;5129377;27;20035;-73
2022/11/15 07:58:36;;;;;;;49.53;41.70;;;10.70;99.90;;;;;;5089735;27;20040;-73
2022/11/15 08:01:06;;;;;;;46.88;38.35;;;10.70;99.90;;;;;;5120933;27;20043;-73
2022/11/15 08:03:32;;;;;;;49.85;40.17;;;10.70;99.90;;;;;;5098341;27;20505;-73
2022/11/15 08:05:59;;;;;;;43.63;36.72;;;10.70;99.90;;;;;;5119817;27;20043;-73
2022/11/15 08:08:24;;;;;;;44.78;38.97;;;10.70;99.90;;;;;;5116889;27;20035;-73
2022/11/15 08:10:50;;;;;;;43.92;37.30;;;10.70;99.90;;;;;;5125603;27;20057;-73
2022/11/15 08:13:16;;;;;;;48.25;39.95;;;10.70;99.90;;;;;;5122377;27;20374;-83
2022/11/15 08:15:43;;;;;;;45.78;39.65;;;10.80;99.90;;;;;;5089138;27;20454;-83
2022/11/15 08:18:15;;;;;;;45.97;37.10;;;10.70;99.90;;;;;;5100844;27;20493;-83
2022/11/15 08:20:42;;;;;;;42.63;37.20;;;10.80;99.90;;;;;;5098884;27;20055;-83
2022/11/15 08:23:10;;;;;;;45.97;38.45;;;10.80;99.90;;;;;;5103072;27;20041;-83
2022/11/15 08:25:36;;;;;;;44.17;38.33;;;10.80;99.90;;;;;;5117798;27;20047;-83
2022/11/15 08:28:04;;;;;;;42.25;37.45;;;10.90;99.90;;;;;;5110734;27;20091;-82
2022/11/15 08:30:34;;;;;;;41.05;36.58;;;10.90;99.90;;;;;;5119472;27;20108;-73
2022/11/15 08:33:00;;;;;;;41.35;36.60;;;10.90;99.90;;;;;;5125678;27;20099;-73
2022/11/15 08:35:26;;;;;;;40.67;36.28;;;10.90;99.90;;;;;;5106387;27;20052;-73
2022/11/15 08:37:53;;;;;;;38.30;34.33;;;11.00;99.90;;;;;;5121518;27;20100;-73
2022/11/15 08:40:19;;;;;;;39.40;35.20;;;11.00;99.90;;;;;;5129068;27;20121;-73
2022/11/15 08:42:48;;;;;;;40.03;35.60;;;11.00;99.90;;;;;;5119950;27;20284;-74
2022/11/15 08:45:15;;;;;;;40.58;35.65;;;11.00;99.90;;;;;;5124070;27;20054;-73
2022/11/15 08:47:40;;;;;;;39.13;35.05;;;11.10;99.90;;;;;;5088438;27;20047;-74
2022/11/15 08:50:07;;;;;;;40.05;35.75;;;11.10;99.90;;;;;;5087408;27;20051;-73
2022/11/15 08:52:33;;;;;;;40.53;36.13;;;11.10;99.90;;;;;;5127079;27;20051;-73
2022/11/15 08:55:02;;;;;;;40.60;35.72;;;11.10;99.90;;;;;;5123190;27;20594;-73
2022/11/15 08:57:31;;;;;;;40.55;35.60;;;11.10;99.90;;;;;;5116257;27;20383;-73
2022/11/15 08:59:57;;;;;;;37.55;33.40;;;11.20;99.90;;;;;;5114079;27;21382;-73
2022/11/15 09:02:23;;;;;;;38.63;34.10;;;11.10;99.90;;;;;;5111992;27;20035;-75
2022/11/15 09:04:48;;;;;;;36.88;33.08;;;11.20;99.90;;;;;;5137878;27;20050;-75
2022/11/15 09:07:14;;;;;;;40.08;35.80;;;11.30;99.90;;;;;;5090924;27;20039;-75
2022/11/15 09:09:40;;;;;;;37.05;33.17;;;11.30;99.90;;;;;;5110194;27;20532;-75
2022/11/15 09:12:07;;;;;;;36.53;32.55;;;11.30;99.90;;;;;;5137900;27;20043;-75
2022/11/15 09:14:33;;;;;;;39.38;35.15;;;11.30;99.90;;;;;;5107099;27;20054;-75
2022/11/15 09:16:59;;;;;;;38.65;34.10;;;11.30;99.90;;;;;;5090393;27;20043;-75
2022/11/15 09:19:25;;;;;;;37.83;33.58;;;11.40;99.90;;;;;;5102614;27;20043;-75
2022/11/15 09:21:51;;;;;;;38.03;33.90;;;11.40;99.90;;;;;;5112550;27;20048;-75
2022/11/15 09:24:17;;;;;;;37.65;33.40;;;11.40;99.90;;;;;;5087702;27;20054;-75
2022/11/15 09:26:43;;;;;;;40.15;35.78;;;11.40;99.90;;;;;;5107659;27;20584;-75
2022/11/15 09:29:09;;;;;;;37.75;33.80;;;11.40;99.90;;;;;;5103877;27;20130;-75
2022/11/15 09:31:35;;;;;;;36.35;32.42;;;11.40;99.90;;;;;;5123425;27;20122;-75
2022/11/15 09:34:01;;;;;;;35.58;31.77;;;11.50;99.90;;;;;;5109551;27;20113;-75
2022/11/15 09:36:27;;;;;;;37.35;33.25;;;11.50;99.90;;;;;;5092154;27;20680;-84
2022/11/15 09:38:52;;;;;;;38.08;34.03;;;11.50;99.90;;;;;;5105772;27;20555;-85
2022/11/15 09:41:26;;;;;;;37.60;33.60;;;11.50;99.90;;;;;;5143430;27;20921;-85
2022/11/15 09:44:08;;;;;;;36.40;32.58;;;11.50;99.90;;;;;;5103552;27;20054;-85
2022/11/15 09:46:55;;;;;;;35.10;31.33;;;11.60;99.90;;;;;;5108384;27;20461;-85
2022/11/15 09:49:22;;;;;;;35.17;31.48;;;11.60;99.90;;;;;;5131953;27;20050;-85
2022/11/15 09:51:50;;;;;;;32.40;29.00;;;11.60;99.90;;;;;;5103052;27;20039;-85
2022/11/15 09:54:29;;;;;;;34.63;31.10;;;11.60;99.90;;;;;;5110729;27;20051;-85
2022/11/15 09:57:11;;;;;;;35.42;31.17;;;11.60;99.90;;;;;;5110766;27;20462;-85
2022/11/15 09:59:58;;;;;;;32.10;28.85;;;11.70;99.90;;;;;;5109913;27;20054;-85
2022/11/15 10:02:40;;;;;;;31.20;28.05;;;11.70;99.90;;;;;;5112029;27;20091;-85
2022/11/15 10:05:10;;;;;;;31.63;28.23;;;11.70;99.90;;;;;;5106398;27;20035;-85
2022/11/15 10:07:54;;;;;;;31.85;28.63;;;11.70;99.90;;;;;;5118212;27;20100;-84
2022/11/15 10:10:42;;;;;;;31.30;28.17;;;11.80;99.90;;;;;;5123105;27;20047;-84
2022/11/15 10:13:23;;;;;;;28.70;25.70;;;11.80;99.90;;;;;;5119525;27;20036;-85
2022/11/15 10:15:50;;;;;;;31.83;28.48;;;11.80;99.90;;;;;;5117362;27;20051;-84
2022/11/15 10:18:22;;;;;;;32.55;29.25;;;11.80;99.90;;;;;;5086389;27;20512;-85
2022/11/15 10:21:15;;;;;;;32.20;28.85;;;11.80;99.90;;;;;;5120323;27;20039;-85
2022/11/15 10:23:41;;;;;;;30.60;27.35;;;11.80;99.90;;;;;;5122715;27;20058;-85
2022/11/15 10:26:13;;;;;;;31.17;27.98;;;11.80;99.90;;;;;;5105932;27;20035;-85
2022/11/15 10:28:39;;;;;;;30.65;27.58;;;11.90;99.90;;;;;;5122479;27;20238;-85
2022/11/15 10:31:22;;;;;;;29.92;26.95;;;11.90;99.90;;;;;;5104843;27;20147;-84
2022/11/15 10:33:49;;;;;;;28.48;25.38;;;11.90;99.90;;;;;;5118988;27;20553;-85
2022/11/15 10:36:17;;;;;;;27.95;25.15;;;11.90;99.90;;;;;;5129087;27;20039;-84
2022/11/15 10:38:49;;;;;;;27.15;24.55;;;11.90;99.90;;;;;;5104215;27;20055;-85
2022/11/15 10:41:20;;;;;;;27.08;24.27;;;11.90;99.90;;;;;;5128217;27;20451;-84
2022/11/15 10:44:00;;;;;;;;;;;12.00;99.90;;;;;;5122873;27;20097;-85
2022/11/15 10:46:26;;;;;;;;;;;12.00;99.90;;;;;;5122730;27;19962;-85
2022/11/15 10:48:52;;;;;;;26.20;23.40;;;12.00;99.90;;;;;;5104767;27;19966;-84
2022/11/15 10:51:28;;;;;;;20.95;18.92;;;12.10;99.90;;;;;;5103426;27;20477;-84
2022/11/15 10:54:00;;;;;;;20.42;18.52;;;12.10;99.90;;;;;;5154116;27;20524;-85
2022/11/15 10:56:26;;;;;;;20.05;18.05;;;12.20;99.90;;;;;;5081948;27;20047;-84
2022/11/15 10:59:01;;;;;;;20.17;18.27;;;12.20;99.90;;;;;;5139293;27;20093;-85
2022/11/15 11:01:44;;;;;;;18.40;16.48;;;12.30;99.90;;;;;;5114839;27;20052;-85
2022/11/15 11:04:10;;;;;;;15.30;13.52;;;12.30;99.90;;;;;;5107059;27;20047;-85
2022/11/15 11:06:51;;;;;;;14.05;12.57;;;12.40;99.90;;;;;;5117229;27;20516;-85
2022/11/15 11:09:32;;;;;;;14.38;13.07;;;12.50;99.90;;;;;;5122453;27;20051;-85
2022/11/15 11:11:58;;;;;;;10.82;9.73;;;12.50;99.90;;;;;;5119322;27;20367;-84
2022/11/15 11:14:31;;;;;;;12.18;9.38;;;12.50;99.90;;;;;;5116704;27;20081;-85
2022/11/15 11:17:16;;;;;;;9.25;7.63;;;12.50;99.90;;;;;;5125228;27;20043;-85
2022/11/15 11:19:59;;;;;;;11.32;9.15;;;12.60;99.90;;;;;;5120251;27;20043;-83
2022/11/15 11:22:59;;;;;;;10.05;8.90;;;12.60;99.90;;;;;;5101690;27;20039;-82
2022/11/15 11:25:36;;;;;;;10.60;7.22;;;12.60;99.90;;;;;;5122414;27;20054;-82
2022/11/15 11:28:46;;;;;;;6.32;5.07;;;12.60;99.90;;;;;;5157240;27;20178;-83
2022/11/15 11:31:12;;;;;;;;;;;12.60;99.90;;;;;;5124080;27;20047;-83
2022/11/15 11:33:44;;;;;;;9.43;5.60;;;12.50;99.90;;;;;;5121814;27;20370;-83
2022/11/15 11:36:29;;;;;;;8.43;5.25;;;12.50;99.90;;;;;;5102754;27;20047;-83
2022/11/15 11:39:11;;;;;;;9.38;5.18;;;12.40;99.90;;;;;;5104939;27;20055;-83
2022/11/15 11:41:55;;;;;;;6.70;4.75;;;12.40;99.90;;;;;;5108458;27;20381;-83
2022/11/15 11:44:33;;;;;;;9.82;4.70;;;12.40;99.90;;;;;;5103397;27;20043;-83
2022/11/15 11:47:01;;;;;;;7.70;4.50;;;12.40;99.90;;;;;;5119345;27;20045;-83
2022/11/15 11:49:32;;;;;;;8.07;3.88;;;12.40;99.90;;;;;;5107899;27;20051;-83
2022/11/15 11:52:20;;;;;;;6.63;4.05;;;12.40;99.90;;;;;;5116985;27;20059;-83
2022/11/15 11:55:13;;;;;;;7.97;3.70;;;12.40;99.90;;;;;;5117787;27;20067;-83
2022/11/15 11:57:45;;;;;;;7.72;3.35;;;12.30;99.90;;;;;;5124861;27;20050;-84
2022/11/15 12:00:14;;;;;;;7.07;2.90;;;12.30;99.90;;;;;;5119403;27;20126;-83
2022/11/15 12:03:02;;;;;;;5.43;3.13;;;12.30;99.90;;;;;;5105291;27;20057;-83
2022/11/15 12:05:37;;;;;;;6.20;3.67;;;12.30;99.90;;;;;;5120489;27;20137;-83
2022/11/15 12:08:15;;;;;;;6.53;4.45;;;12.20;99.90;;;;;;5117918;27;20051;-83
2022/11/15 12:10:47;;;;;;;8.35;3.95;;;12.20;99.90;;;;;;5150105;27;20051;-83
2022/11/15 12:13:18;;;;;;;8.18;4.82;;;12.20;99.90;;;;;;5131243;27;20134;-83
2022/11/15 12:15:53;;;;;;;8.27;5.45;;;12.30;99.90;;;;;;5103953;27;20043;-83
2022/11/15 12:18:19;;;;;;;7.25;6.25;;;12.20;99.90;;;;;;5103396;27;20253;-83
2022/11/15 12:21:14;;;;;;;11.30;6.07;;;12.20;99.90;;;;;;5122837;27;20506;-84
2022/11/15 12:23:51;;;;;;;10.38;6.00;;;12.30;99.90;;;;;;5111707;27;20321;-84
2022/11/15 12:26:21;;;;;;;7.15;5.10;;;12.40;99.90;;;;;;5116822;27;20126;-84
2022/11/15 12:28:59;;;;;;;7.88;5.32;;;12.50;99.90;;;;;;5105522;27;20453;-84
2022/11/15 12:31:34;;;;;;;9.65;4.90;;;12.60;99.90;;;;;;5121700;27;20054;-83
2022/11/15 12:34:03;;;;;;;6.25;4.50;;;12.70;99.90;;;;;;5126597;27;20072;-84
2022/11/15 12:36:42;;;;;;;8.23;4.22;;;12.70;99.90;;;;;;5119724;27;20043;-83
2022/11/15 12:39:13;;;;;;;7.97;4.20;;;12.80;99.90;;;;;;5152117;27;20051;-83
2022/11/15 12:41:44;;;;;;;7.40;3.85;;;12.80;99.90;;;;;;5106775;27;20043;-84
2022/11/15 12:44:38;;;;;;;6.78;3.63;;;12.90;99.90;;;;;;5106133;27;20264;-83
2022/11/15 12:47:23;;;;;;;6.32;3.85;;;12.90;99.90;;;;;;5123440;27;20111;-83
2022/11/15 12:49:50;;;;;;;6.68;3.25;;;12.90;99.90;;;;;;5116210;27;20429;-83
2022/11/15 12:52:16;;;;;;;5.85;3.97;;;12.80;99.90;;;;;;5119349;27;20035;-83
2022/11/15 12:54:42;;;;;;;5.82;3.70;;;12.80;99.90;;;;;;5101118;27;20528;-83
2022/11/15 12:57:08;;;;;;;9.70;4.43;;;12.80;99.90;;;;;;5124422;27;20039;-84
2022/11/15 12:59:58;;;;;;;7.75;4.18;;;12.80;99.90;;;;;;5119371;27;20547;-84